Time,TemperatureF,DewpointF,PressureIn,WindDirection,WindDirectionDegrees,WindSpeedMPH,WindSpeedGustMPH,Humidity,HourlyPrecipIn,Conditions,Clouds,dailyrainin,SolarRadiationWatts/m^2,SoftwareType,DateUTC
2013-10-31 10:26:00,72.8,55.7,26.89,WNW,289,0.0,0.0,55,0.00,CLR,,0.06,57.8,WeatherDisplay:10.37,2013-10-31 15:26:00,
2013-10-31 10:27:00,72.8,56.2,26.89,West,265,6.0,0.0,56,0.00,OVC,,0.06,57.8,WeatherDisplay:10.37,2013-10-31 15:27:00,
2013-10-31 10:32:00,72.9,56.3,26.89,WNW,282,9.2,9.2,56,0.00,OVC,,0.06,19.5,WeatherDisplay:10.37,2013-10-31 15:32:00,
2013-10-31 10:37:00,72.7,57.5,26.89,West,279,11.5,11.5,59,0.00,OVC,,0.06,19.2,WeatherDisplay:10.37,2013-10-31 15:37:00,
2013-10-31 10:42:00,72.8,58.6,28.36,West,268,11.5,11.5,61,0.00,OVC,,0.06,58.2,WeatherDisplay:10.37,2013-10-31 15:42:00,
2013-10-31 10:47:00,73.0,58.3,28.36,West,271,9.2,9.2,60,0.00,OVC,,0.06,58.9,WeatherDisplay:10.37,2013-10-31 15:47:00,
2013-10-31 10:52:00,73.0,58.3,28.36,West,271,9.2,9.2,60,0.00,OVC,,0.06,58.9,WeatherDisplay:10.37,2013-10-31 15:52:00,
2013-10-31 10:57:00,73.0,58.3,28.36,West,271,9.2,9.2,60,0.00,OVC,,0.06,58.9,WeatherDisplay:10.37,2013-10-31 15:57:00,
2013-10-31 11:02:00,73.9,58.7,28.36,WNW,284,5.8,5.8,59,0.00,OVC,,0.06,61.5,WeatherDisplay:10.37,2013-10-31 16:02:00,
2013-10-31 11:08:00,73.8,53.4,28.36,SW,216,5.8,5.8,49,0.00,OVC,,0.06,64.0,WeatherDisplay:10.37,2013-10-31 16:08:00,
2013-10-31 11:13:00,73.8,53.4,28.36,SW,216,5.8,5.8,49,0.00,OVC,,0.06,64.0,WeatherDisplay:10.37,2013-10-31 16:13:00,
2013-10-31 11:18:00,73.8,53.4,28.36,SW,216,4.6,4.6,49,0.00,OVC,,0.06,64.0,WeatherDisplay:10.37,2013-10-31 16:18:00,
2013-10-31 11:23:00,73.3,48.8,28.36,WSW,247,4.6,4.6,42,0.00,OVC,,0.06,65.7,WeatherDisplay:10.37,2013-10-31 16:23:00,
2013-10-31 11:28:00,73.0,47.9,28.36,West,267,11.5,11.5,41,0.00,OVC,,0.06,66.4,WeatherDisplay:10.37,2013-10-31 16:28:00,
2013-10-31 11:33:00,73.0,47.9,28.36,West,267,11.5,11.5,41,0.00,OVC,,0.06,66.4,WeatherDisplay:10.37,2013-10-31 16:33:00,
2013-10-31 11:39:00,73.0,47.9,28.36,West,267,10.4,10.4,41,0.00,OVC,,0.06,66.4,WeatherDisplay:10.37,2013-10-31 16:39:00,
2013-10-31 11:44:00,71.9,46.9,28.36,WNW,286,12.7,12.7,41,0.00,OVC,,0.06,71.9,WeatherDisplay:10.37,2013-10-31 16:44:00,
2013-10-31 11:49:00,71.9,46.9,28.36,WNW,286,12.7,12.7,41,0.00,OVC,,0.06,71.9,WeatherDisplay:10.37,2013-10-31 16:49:00,
2013-10-31 11:54:00,71.6,44.6,28.36,West,260,17.3,17.3,38,0.00,OVC,,0.06,75.8,WeatherDisplay:10.37,2013-10-31 16:54:00,
2013-10-31 11:59:00,71.5,44.5,28.36,West,263,17.3,17.3,38,0.00,OVC,,0.06,80.2,WeatherDisplay:10.37,2013-10-31 16:59:00,
2013-10-31 12:04:00,71.5,44.5,28.36,West,263,17.3,17.3,38,0.00,OVC,,0.06,80.2,WeatherDisplay:10.37,2013-10-31 17:04:00,
2013-10-31 12:09:00,71.5,44.5,28.36,West,263,17.3,17.3,38,0.00,OVC,,0.06,80.2,WeatherDisplay:10.37,2013-10-31 17:09:00,
2013-10-31 12:14:00,71.5,44.5,28.36,West,263,17.3,17.3,38,0.00,OVC,,0.06,80.2,WeatherDisplay:10.37,2013-10-31 17:14:00,
2013-10-31 12:20:00,71.5,44.5,28.36,West,263,17.3,17.3,38,0.00,OVC,,0.06,80.2,WeatherDisplay:10.37,2013-10-31 17:20:00,
2013-10-31 12:25:00,71.8,46.2,28.36,SW,215,17.3,17.3,40,0.00,OVC,,0.06,75.9,WeatherDisplay:10.37,2013-10-31 17:25:00,
2013-10-31 12:30:00,71.8,46.2,28.36,SW,215,17.3,17.3,40,0.00,OVC,,0.06,75.9,WeatherDisplay:10.37,2013-10-31 17:30:00,
2013-10-31 12:35:00,71.8,46.2,28.36,SW,215,17.3,17.3,40,0.00,OVC,,0.06,75.9,WeatherDisplay:10.37,2013-10-31 17:35:00,
2013-10-31 12:38:00,72.0,46.3,28.36,West,273,17.3,17.3,40,0.00,OVC,,0.06,82.1,WeatherDisplay:10.37,2013-10-31 17:38:00,
2013-10-31 12:40:00,71.8,46.2,28.36,SW,215,17.3,17.3,40,0.00,OVC,,0.06,75.9,WeatherDisplay:10.37,2013-10-31 17:40:00,
2013-10-31 12:46:00,72.0,46.3,28.36,West,273,17.3,17.3,40,0.00,OVC,,0.06,82.1,WeatherDisplay:10.37,2013-10-31 17:46:00,
2013-10-31 12:51:00,72.0,46.3,28.36,West,273,17.3,17.3,40,0.00,OVC,,0.06,82.1,WeatherDisplay:10.37,2013-10-31 17:51:00,
2013-10-31 12:56:00,72.0,46.3,28.36,West,273,17.3,17.3,40,0.00,OVC,,0.06,82.1,WeatherDisplay:10.37,2013-10-31 17:56:00,
2013-10-31 13:01:00,72.0,46.3,28.36,West,273,10.4,10.4,40,0.00,OVC,,0.06,82.1,WeatherDisplay:10.37,2013-10-31 18:01:00,
2013-10-31 13:06:00,72.0,46.3,28.36,West,273,10.4,10.4,40,0.00,OVC,,0.06,82.1,WeatherDisplay:10.37,2013-10-31 18:06:00,
2013-10-31 13:11:00,72.4,45.4,27.12,WNW,297,10.4,10.4,38,0.00,OVC,,0.06,71.5,WeatherDisplay:10.37,2013-10-31 18:11:00,
2013-10-31 13:17:00,72.4,45.4,27.12,WNW,297,10.4,10.4,38,0.00,OVC,,0.06,71.5,WeatherDisplay:10.37,2013-10-31 18:17:00,
2013-10-31 13:22:00,72.4,46.0,27.12,WSW,249,10.4,10.4,39,0.00,OVC,,0.06,76.8,WeatherDisplay:10.37,2013-10-31 18:22:00,
2013-10-31 13:27:00,72.4,46.0,27.12,WSW,249,10.4,10.4,39,0.00,OVC,,0.06,76.8,WeatherDisplay:10.37,2013-10-31 18:27:00,
2013-10-31 13:32:00,72.4,46.0,27.12,WSW,252,10.4,10.4,39,0.00,OVC,,0.06,76.8,WeatherDisplay:10.37,2013-10-31 18:32:00,
2013-10-31 13:36:00,72.4,46.0,27.12,WSW,252,10.4,10.4,39,0.00,OVC,,0.06,76.8,WeatherDisplay:10.37,2013-10-31 18:36:00,
2013-10-31 13:37:00,72.4,46.0,27.12,WSW,252,10.4,10.4,39,0.00,OVC,,0.06,76.8,WeatherDisplay:10.37,2013-10-31 18:37:00,
2013-10-31 20:49:00,57.7,48.7,27.65,West,264,10.4,0.0,72,0.00,CLR,,0.06,0.0,WeatherDisplay:10.37,2013-11-01 01:49:00,
2013-10-31 20:54:00,57.3,48.7,27.65,West,265,1.2,0.0,73,0.00,CLR,,0.06,0.0,WeatherDisplay:10.37,2013-11-01 01:54:00,
2013-10-31 20:59:00,57.1,48.9,27.65,West,264,0.0,0.0,74,0.00,CLR,,0.06,0.0,WeatherDisplay:10.37,2013-11-01 01:59:00,
2013-10-31 21:05:00,57.1,48.9,27.65,West,264,0.0,0.0,74,0.00,CLR,,0.06,0.0,WeatherDisplay:10.37,2013-11-01 02:05:00,
2013-10-31 21:10:00,57.1,48.9,27.65,West,264,0.0,0.0,74,0.00,CLR,,0.06,0.0,WeatherDisplay:10.37,2013-11-01 02:10:00,
2013-10-31 21:15:00,57.1,48.9,27.65,West,264,0.0,0.0,74,0.00,CLR,,0.06,0.0,WeatherDisplay:10.37,2013-11-01 02:15:00,
2013-10-31 21:20:00,57.1,48.9,27.65,West,264,0.0,0.0,74,0.00,CLR,,0.06,0.0,WeatherDisplay:10.37,2013-11-01 02:20:00,
2013-10-31 21:25:00,57.1,48.9,27.65,West,264,0.0,0.0,74,0.00,CLR,,0.06,0.0,WeatherDisplay:10.37,2013-11-01 02:25:00,
2013-10-31 21:31:00,57.1,48.9,27.65,West,264,0.0,0.0,74,0.00,CLR,,0.06,0.0,WeatherDisplay:10.37,2013-11-01 02:31:00,
2013-10-31 21:36:00,57.1,48.9,27.65,West,264,0.0,0.0,74,0.00,CLR,,0.06,0.0,WeatherDisplay:10.37,2013-11-01 02:36:00,
2013-10-31 21:41:00,57.1,48.9,27.65,West,264,0.0,0.0,74,0.00,CLR,,0.06,0.0,WeatherDisplay:10.37,2013-11-01 02:41:00,
2013-10-31 21:46:00,57.1,48.9,27.65,West,264,0.0,0.0,74,0.00,CLR,,0.06,0.0,WeatherDisplay:10.37,2013-11-01 02:46:00,
2013-10-31 21:52:00,57.1,48.9,27.65,West,264,0.0,0.0,74,0.00,CLR,,0.06,0.0,WeatherDisplay:10.37,2013-11-01 02:52:00,
2013-10-31 21:57:00,57.1,48.9,27.65,West,264,0.0,0.0,74,0.00,CLR,,0.06,0.0,WeatherDisplay:10.37,2013-11-01 02:57:00,
2013-10-31 22:02:00,55.0,48.3,28.68,West,265,0.0,0.0,78,0.00,CLR,,0.06,0.0,WeatherDisplay:10.37,2013-11-01 03:02:00,
2013-10-31 22:07:00,55.0,48.3,28.68,West,265,0.0,0.0,78,0.00,CLR,,0.06,0.0,WeatherDisplay:10.37,2013-11-01 03:07:00,
2013-10-31 22:12:00,55.0,48.3,28.68,West,265,0.0,0.0,78,0.00,CLR,,0.06,0.0,WeatherDisplay:10.37,2013-11-01 03:12:00,
2013-10-31 22:17:00,54.4,48.4,28.25,West,265,0.0,0.0,80,0.00,CLR,,0.06,0.0,WeatherDisplay:10.37,2013-11-01 03:17:00,
2013-10-31 22:23:00,53.5,48.1,28.25,West,265,0.0,0.0,82,0.00,CLR,,0.06,0.0,WeatherDisplay:10.37,2013-11-01 03:23:00,
2013-10-31 22:28:00,53.3,47.9,28.25,West,265,0.0,0.0,82,0.00,CLR,,0.06,0.0,WeatherDisplay:10.37,2013-11-01 03:28:00,
2013-10-31 22:33:00,53.3,47.9,28.25,West,265,0.0,0.0,82,0.00,CLR,,0.06,0.0,WeatherDisplay:10.37,2013-11-01 03:33:00,
2013-10-31 22:38:00,53.3,47.9,28.25,West,265,0.0,0.0,82,0.00,CLR,,0.06,0.0,WeatherDisplay:10.37,2013-11-01 03:38:00,
2013-10-31 22:43:00,53.3,47.9,28.25,West,265,0.0,0.0,82,0.00,CLR,,0.06,0.0,WeatherDisplay:10.37,2013-11-01 03:43:00,
2013-10-31 22:48:00,52.6,47.6,28.25,West,264,0.0,0.0,83,0.00,CLR,,0.06,0.0,WeatherDisplay:10.37,2013-11-01 03:48:00,
2013-10-31 22:54:00,52.6,47.6,28.25,West,265,0.0,0.0,83,0.00,CLR,,0.06,0.0,WeatherDisplay:10.37,2013-11-01 03:54:00,
2013-10-31 22:59:00,52.6,47.6,28.25,West,265,0.0,0.0,83,0.00,CLR,,0.06,0.0,WeatherDisplay:10.37,2013-11-01 03:59:00,
2013-10-31 23:01:00,52.6,47.6,28.25,West,265,0.0,0.0,83,0.00,CLR,,0.06,0.0,WeatherDisplay:10.37,2013-11-01 04:01:00,
2013-10-31 23:02:00,52.6,47.6,28.25,West,265,0.0,0.0,83,0.00,CLR,,0.06,0.0,WeatherDisplay:10.37,2013-11-01 04:02:00,
2013-10-31 23:03:00,52.6,47.6,28.25,West,265,0.0,0.0,83,0.00,CLR,,0.06,0.0,WeatherDisplay:10.37,2013-11-01 04:03:00,
2013-10-31 23:05:00,52.6,47.6,28.25,West,265,0.0,0.0,83,0.00,CLR,,0.06,0.0,WeatherDisplay:10.37,2013-11-01 04:05:00,
2013-10-31 23:06:00,52.6,47.6,28.25,West,265,0.0,0.0,83,0.00,CLR,,0.06,0.0,WeatherDisplay:10.37,2013-11-01 04:06:00,
2013-10-31 23:18:00,52.6,47.6,28.25,West,265,0.0,0.0,83,0.00,CLR,,0.06,0.0,WeatherDisplay:10.37,2013-11-01 04:18:00,
2013-10-31 23:23:00,51.6,47.2,27.78,West,265,0.0,0.0,85,0.00,CLR,,0.06,0.0,WeatherDisplay:10.37,2013-11-01 04:23:00,
2013-10-31 23:28:00,51.6,47.2,27.78,West,264,0.0,0.0,85,0.00,CLR,,0.06,0.0,WeatherDisplay:10.37,2013-11-01 04:28:00,
2013-10-31 23:34:00,51.6,47.2,27.78,West,264,0.0,0.0,85,0.00,CLR,,0.06,0.0,WeatherDisplay:10.37,2013-11-01 04:34:00,
2013-10-31 23:39:00,51.6,47.2,27.78,West,264,0.0,0.0,85,0.00,CLR,,0.06,0.0,WeatherDisplay:10.37,2013-11-01 04:39:00,
2013-10-31 23:44:00,51.5,47.1,27.78,West,265,0.0,0.0,85,0.00,CLR,,0.06,0.0,WeatherDisplay:10.37,2013-11-01 04:44:00,
2013-10-31 23:50:00,51.5,47.1,27.78,West,265,0.0,0.0,85,0.00,CLR,,0.06,0.0,WeatherDisplay:10.37,2013-11-01 04:50:00,
2013-10-31 23:55:00,51.5,47.1,27.78,West,265,0.0,0.0,85,0.00,CLR,,0.06,0.0,WeatherDisplay:10.37,2013-11-01 04:55:00,
2013-10-31 23:57:00,51.5,47.1,27.78,West,265,0.0,0.0,85,0.00,CLR,,0.06,0.0,WeatherDisplay:10.37,2013-11-01 04:57:00,